sensor_id;sensor_type;location;lat;lon;timestamp;P1;durP1;ratioP1;P2;durP2;ratioP2
56752;SDS011;42627;42.646;23.642;2023-05-07T00:01:11;11.93;;;4.90;;
56752;SDS011;42627;42.646;23.642;2023-05-07T00:03:11;7.93;;;3.60;;
56752;SDS011;42627;42.646;23.642;2023-05-07T00:05:13;5.35;;;3.28;;
56752;SDS011;42627;42.646;23.642;2023-05-07T00:07:14;4.95;;;3.10;;
56752;SDS011;42627;42.646;23.642;2023-05-07T00:14:15;6.53;;;3.60;;
56752;SDS011;42627;42.646;23.642;2023-05-07T00:16:16;5.75;;;3.55;;
56752;SDS011;42627;42.646;23.642;2023-05-07T00:18:16;6.38;;;3.17;;
56752;SDS011;42627;42.646;23.642;2023-05-07T00:20:20;5.68;;;3.38;;
56752;SDS011;42627;42.646;23.642;2023-05-07T00:22:21;5.68;;;3.50;;
56752;SDS011;42627;42.646;23.642;2023-05-07T00:24:22;6.93;;;3.72;;
56752;SDS011;42627;42.646;23.642;2023-05-07T00:26:22;4.85;;;3.00;;
56752;SDS011;42627;42.646;23.642;2023-05-07T00:30:33;5.88;;;3.28;;
56752;SDS011;42627;42.646;23.642;2023-05-07T00:32:34;5.47;;;2.88;;
56752;SDS011;42627;42.646;23.642;2023-05-07T00:34:35;6.05;;;3.63;;
56752;SDS011;42627;42.646;23.642;2023-05-07T00:36:35;5.85;;;3.42;;
56752;SDS011;42627;42.646;23.642;2023-05-07T00:38:54;7.50;;;3.80;;
56752;SDS011;42627;42.646;23.642;2023-05-07T00:43:50;6.18;;;3.30;;
56752;SDS011;42627;42.646;23.642;2023-05-07T00:45:51;7.28;;;3.78;;
56752;SDS011;42627;42.646;23.642;2023-05-07T00:47:54;7.03;;;3.70;;
56752;SDS011;42627;42.646;23.642;2023-05-07T00:49:57;7.35;;;3.28;;
56752;SDS011;42627;42.646;23.642;2023-05-07T00:51:58;6.97;;;3.45;;
56752;SDS011;42627;42.646;23.642;2023-05-07T00:54:01;9.55;;;4.43;;
56752;SDS011;42627;42.646;23.642;2023-05-07T00:56:02;8.02;;;4.50;;
56752;SDS011;42627;42.646;23.642;2023-05-07T01:00:14;7.28;;;3.72;;
56752;SDS011;42627;42.646;23.642;2023-05-07T01:02:14;6.47;;;3.60;;
56752;SDS011;42627;42.646;23.642;2023-05-07T01:04:15;6.47;;;3.17;;
56752;SDS011;42627;42.646;23.642;2023-05-07T01:06:15;6.53;;;3.40;;
56752;SDS011;42627;42.646;23.642;2023-05-07T01:08:17;7.03;;;3.65;;
56752;SDS011;42627;42.646;23.642;2023-05-07T01:10:18;7.25;;;3.60;;
56752;SDS011;42627;42.646;23.642;2023-05-07T01:12:19;6.85;;;3.45;;
56752;SDS011;42627;42.646;23.642;2023-05-07T01:14:32;6.97;;;3.83;;
56752;SDS011;42627;42.646;23.642;2023-05-07T01:19:13;7.28;;;3.83;;
56752;SDS011;42627;42.646;23.642;2023-05-07T01:21:16;8.52;;;3.83;;
56752;SDS011;42627;42.646;23.642;2023-05-07T01:23:18;7.70;;;4.50;;
56752;SDS011;42627;42.646;23.642;2023-05-07T01:25:19;6.90;;;3.58;;
56752;SDS011;42627;42.646;23.642;2023-05-07T01:27:19;10.80;;;3.92;;
56752;SDS011;42627;42.646;23.642;2023-05-07T01:29:20;9.40;;;4.60;;
56752;SDS011;42627;42.646;23.642;2023-05-07T01:31:20;8.18;;;4.18;;
56752;SDS011;42627;42.646;23.642;2023-05-07T01:33:29;10.30;;;4.22;;
56752;SDS011;42627;42.646;23.642;2023-05-07T01:35:35;7.32;;;4.25;;
56752;SDS011;42627;42.646;23.642;2023-05-07T01:37:39;10.95;;;4.68;;
56752;SDS011;42627;42.646;23.642;2023-05-07T01:39:40;6.47;;;3.45;;
56752;SDS011;42627;42.646;23.642;2023-05-07T01:41:42;7.43;;;4.38;;
56752;SDS011;42627;42.646;23.642;2023-05-07T01:48:44;6.88;;;3.80;;
56752;SDS011;42627;42.646;23.642;2023-05-07T01:50:45;6.80;;;3.50;;
56752;SDS011;42627;42.646;23.642;2023-05-07T01:52:47;8.50;;;4.05;;
56752;SDS011;42627;42.646;23.642;2023-05-07T01:54:49;7.03;;;3.88;;
56752;SDS011;42627;42.646;23.642;2023-05-07T01:56:52;6.68;;;3.95;;
56752;SDS011;42627;42.646;23.642;2023-05-07T01:58:53;6.13;;;3.72;;
56752;SDS011;42627;42.646;23.642;2023-05-07T02:00:54;6.75;;;3.85;;
56752;SDS011;42627;42.646;23.642;2023-05-07T02:02:59;9.48;;;4.13;;
56752;SDS011;42627;42.646;23.642;2023-05-07T02:05:01;7.57;;;4.05;;
56752;SDS011;42627;42.646;23.642;2023-05-07T02:07:02;7.38;;;3.63;;
56752;SDS011;42627;42.646;23.642;2023-05-07T02:09:02;7.70;;;4.32;;
56752;SDS011;42627;42.646;23.642;2023-05-07T02:11:08;9.10;;;5.00;;
56752;SDS011;42627;42.646;23.642;2023-05-07T02:18:09;9.45;;;4.55;;
56752;SDS011;42627;42.646;23.642;2023-05-07T02:20:10;8.98;;;4.68;;
56752;SDS011;42627;42.646;23.642;2023-05-07T02:22:13;10.07;;;5.40;;
56752;SDS011;42627;42.646;23.642;2023-05-07T02:24:13;8.43;;;4.90;;
56752;SDS011;42627;42.646;23.642;2023-05-07T02:26:14;12.00;;;5.28;;
56752;SDS011;42627;42.646;23.642;2023-05-07T02:28:15;9.35;;;5.35;;
56752;SDS011;42627;42.646;23.642;2023-05-07T02:30:15;8.75;;;5.00;;
56752;SDS011;42627;42.646;23.642;2023-05-07T02:32:22;9.60;;;5.50;;
56752;SDS011;42627;42.646;23.642;2023-05-07T02:34:23;12.82;;;5.50;;
56752;SDS011;42627;42.646;23.642;2023-05-07T02:36:23;10.50;;;6.10;;
56752;SDS011;42627;42.646;23.642;2023-05-07T02:38:24;10.43;;;5.00;;
56752;SDS011;42627;42.646;23.642;2023-05-07T02:40:25;8.60;;;4.82;;
56752;SDS011;42627;42.646;23.642;2023-05-07T02:42:43;9.40;;;4.78;;
56752;SDS011;42627;42.646;23.642;2023-05-07T02:47:14;9.73;;;5.53;;
56752;SDS011;42627;42.646;23.642;2023-05-07T02:49:15;8.10;;;5.32;;
56752;SDS011;42627;42.646;23.642;2023-05-07T02:51:19;9.40;;;5.80;;
56752;SDS011;42627;42.646;23.642;2023-05-07T02:53:21;9.85;;;5.32;;
56752;SDS011;42627;42.646;23.642;2023-05-07T02:55:22;9.63;;;5.57;;
56752;SDS011;42627;42.646;23.642;2023-05-07T02:57:22;10.25;;;5.82;;
56752;SDS011;42627;42.646;23.642;2023-05-07T02:59:23;15.82;;;9.25;;
56752;SDS011;42627;42.646;23.642;2023-05-07T03:03:35;13.05;;;6.90;;
56752;SDS011;42627;42.646;23.642;2023-05-07T03:05:36;10.32;;;6.00;;
56752;SDS011;42627;42.646;23.642;2023-05-07T03:07:37;10.15;;;6.28;;
56752;SDS011;42627;42.646;23.642;2023-05-07T03:09:38;39.05;;;17.85;;
56752;SDS011;42627;42.646;23.642;2023-05-07T03:11:56;14.88;;;8.07;;
56752;SDS011;42627;42.646;23.642;2023-05-07T03:16:44;12.15;;;6.70;;
56752;SDS011;42627;42.646;23.642;2023-05-07T03:18:47;11.43;;;6.88;;
56752;SDS011;42627;42.646;23.642;2023-05-07T03:20:48;13.73;;;6.07;;
56752;SDS011;42627;42.646;23.642;2023-05-07T03:22:52;11.88;;;6.45;;
56752;SDS011;42627;42.646;23.642;2023-05-07T03:24:52;10.18;;;5.35;;
56752;SDS011;42627;42.646;23.642;2023-05-07T03:26:53;13.15;;;6.95;;
56752;SDS011;42627;42.646;23.642;2023-05-07T03:28:54;10.75;;;5.93;;
56752;SDS011;42627;42.646;23.642;2023-05-07T03:33:05;9.90;;;5.90;;
56752;SDS011;42627;42.646;23.642;2023-05-07T03:35:06;10.65;;;6.13;;
56752;SDS011;42627;42.646;23.642;2023-05-07T03:37:07;11.07;;;6.05;;
56752;SDS011;42627;42.646;23.642;2023-05-07T03:39:08;10.52;;;5.90;;
56752;SDS011;42627;42.646;23.642;2023-05-07T03:41:08;10.45;;;6.05;;
56752;SDS011;42627;42.646;23.642;2023-05-07T03:43:09;11.00;;;6.47;;
56752;SDS011;42627;42.646;23.642;2023-05-07T03:45:10;9.13;;;6.15;;
56752;SDS011;42627;42.646;23.642;2023-05-07T03:49:50;12.02;;;5.70;;
56752;SDS011;42627;42.646;23.642;2023-05-07T03:51:59;11.32;;;6.07;;
56752;SDS011;42627;42.646;23.642;2023-05-07T03:53:59;10.00;;;5.88;;
56752;SDS011;42627;42.646;23.642;2023-05-07T03:56:00;10.00;;;5.47;;
56752;SDS011;42627;42.646;23.642;2023-05-07T03:58:00;9.68;;;5.82;;
56752;SDS011;42627;42.646;23.642;2023-05-07T04:00:01;9.85;;;5.28;;
56752;SDS011;42627;42.646;23.642;2023-05-07T04:02:03;11.38;;;5.40;;
56752;SDS011;42627;42.646;23.642;2023-05-07T04:04:04;16.00;;;6.32;;
56752;SDS011;42627;42.646;23.642;2023-05-07T04:06:15;8.55;;;5.80;;
56752;SDS011;42627;42.646;23.642;2023-05-07T04:08:17;10.18;;;4.68;;
56752;SDS011;42627;42.646;23.642;2023-05-07T04:10:18;10.25;;;5.78;;
56752;SDS011;42627;42.646;23.642;2023-05-07T04:12:19;10.10;;;5.60;;
56752;SDS011;42627;42.646;23.642;2023-05-07T04:14:19;12.00;;;6.63;;
56752;SDS011;42627;42.646;23.642;2023-05-07T04:19:07;10.30;;;5.68;;
56752;SDS011;42627;42.646;23.642;2023-05-07T04:21:26;10.00;;;5.72;;
56752;SDS011;42627;42.646;23.642;2023-05-07T04:23:27;10.85;;;5.20;;
56752;SDS011;42627;42.646;23.642;2023-05-07T04:25:28;9.95;;;6.03;;
56752;SDS011;42627;42.646;23.642;2023-05-07T04:27:29;11.57;;;5.75;;
56752;SDS011;42627;42.646;23.642;2023-05-07T04:29:30;12.10;;;6.45;;
56752;SDS011;42627;42.646;23.642;2023-05-07T04:31:31;12.02;;;5.90;;
56752;SDS011;42627;42.646;23.642;2023-05-07T04:33:32;12.98;;;6.15;;
56752;SDS011;42627;42.646;23.642;2023-05-07T04:35:42;10.70;;;5.78;;
56752;SDS011;42627;42.646;23.642;2023-05-07T04:37:43;12.70;;;6.20;;
56752;SDS011;42627;42.646;23.642;2023-05-07T04:39:44;11.32;;;5.70;;
56752;SDS011;42627;42.646;23.642;2023-05-07T04:41:45;11.85;;;6.40;;
56752;SDS011;42627;42.646;23.642;2023-05-07T04:43:46;13.10;;;5.93;;
56752;SDS011;42627;42.646;23.642;2023-05-07T04:46:02;16.52;;;5.63;;
56752;SDS011;42627;42.646;23.642;2023-05-07T04:50:38;9.77;;;5.20;;
56752;SDS011;42627;42.646;23.642;2023-05-07T04:52:39;11.20;;;5.75;;
56752;SDS011;42627;42.646;23.642;2023-05-07T04:54:40;10.10;;;6.22;;
56752;SDS011;42627;42.646;23.642;2023-05-07T04:56:41;9.95;;;5.55;;
56752;SDS011;42627;42.646;23.642;2023-05-07T04:58:42;10.93;;;5.88;;
56752;SDS011;42627;42.646;23.642;2023-05-07T05:00:43;11.07;;;5.90;;
56752;SDS011;42627;42.646;23.642;2023-05-07T05:02:45;9.60;;;5.40;;
56752;SDS011;42627;42.646;23.642;2023-05-07T05:04:46;9.40;;;5.55;;
56752;SDS011;42627;42.646;23.642;2023-05-07T05:06:52;14.98;;;5.55;;
56752;SDS011;42627;42.646;23.642;2023-05-07T05:08:53;9.13;;;4.75;;
56752;SDS011;42627;42.646;23.642;2023-05-07T05:10:55;8.27;;;5.07;;
56752;SDS011;42627;42.646;23.642;2023-05-07T05:12:56;11.98;;;5.38;;
56752;SDS011;42627;42.646;23.642;2023-05-07T05:14:57;6.80;;;4.22;;
56752;SDS011;42627;42.646;23.642;2023-05-07T05:19:42;9.57;;;4.38;;
56752;SDS011;42627;42.646;23.642;2023-05-07T05:21:52;8.38;;;3.83;;
56752;SDS011;42627;42.646;23.642;2023-05-07T05:23:53;10.00;;;4.30;;
56752;SDS011;42627;42.646;23.642;2023-05-07T05:25:57;6.18;;;3.78;;
56752;SDS011;42627;42.646;23.642;2023-05-07T05:27:58;7.65;;;3.55;;
56752;SDS011;42627;42.646;23.642;2023-05-07T05:29:59;6.05;;;3.83;;
56752;SDS011;42627;42.646;23.642;2023-05-07T05:32:00;6.50;;;4.20;;
56752;SDS011;42627;42.646;23.642;2023-05-07T05:34:01;6.47;;;4.20;;
56752;SDS011;42627;42.646;23.642;2023-05-07T05:36:09;7.68;;;3.92;;
56752;SDS011;42627;42.646;23.642;2023-05-07T05:38:10;6.07;;;3.70;;
56752;SDS011;42627;42.646;23.642;2023-05-07T05:40:11;9.40;;;4.20;;
56752;SDS011;42627;42.646;23.642;2023-05-07T05:42:12;6.07;;;3.95;;
56752;SDS011;42627;42.646;23.642;2023-05-07T05:44:13;9.25;;;4.05;;
56752;SDS011;42627;42.646;23.642;2023-05-07T05:51:18;8.27;;;4.30;;
56752;SDS011;42627;42.646;23.642;2023-05-07T05:53:19;7.10;;;4.38;;
56752;SDS011;42627;42.646;23.642;2023-05-07T05:55:20;7.97;;;4.55;;
56752;SDS011;42627;42.646;23.642;2023-05-07T05:57:21;7.93;;;4.40;;
56752;SDS011;42627;42.646;23.642;2023-05-07T05:59:22;9.32;;;4.97;;
56752;SDS011;42627;42.646;23.642;2023-05-07T06:01:24;7.80;;;4.55;;
56752;SDS011;42627;42.646;23.642;2023-05-07T06:03:25;8.70;;;4.50;;
56752;SDS011;42627;42.646;23.642;2023-05-07T06:05:30;9.13;;;4.75;;
56752;SDS011;42627;42.646;23.642;2023-05-07T06:07:31;9.02;;;5.03;;
56752;SDS011;42627;42.646;23.642;2023-05-07T06:09:32;8.85;;;4.57;;
56752;SDS011;42627;42.646;23.642;2023-05-07T06:11:33;8.50;;;5.10;;
56752;SDS011;42627;42.646;23.642;2023-05-07T06:13:34;7.80;;;4.60;;
56752;SDS011;42627;42.646;23.642;2023-05-07T06:20:28;9.80;;;4.60;;
56752;SDS011;42627;42.646;23.642;2023-05-07T06:22:29;8.30;;;4.97;;
56752;SDS011;42627;42.646;23.642;2023-05-07T06:24:30;8.23;;;4.40;;
56752;SDS011;42627;42.646;23.642;2023-05-07T06:26:31;8.57;;;4.55;;
56752;SDS011;42627;42.646;23.642;2023-05-07T06:28:32;9.05;;;5.15;;
56752;SDS011;42627;42.646;23.642;2023-05-07T06:30:35;8.60;;;5.10;;
56752;SDS011;42627;42.646;23.642;2023-05-07T06:32:36;10.05;;;5.85;;
56752;SDS011;42627;42.646;23.642;2023-05-07T06:34:43;10.27;;;4.97;;
56752;SDS011;42627;42.646;23.642;2023-05-07T06:36:44;8.68;;;4.40;;
56752;SDS011;42627;42.646;23.642;2023-05-07T06:38:45;9.73;;;4.82;;
56752;SDS011;42627;42.646;23.642;2023-05-07T06:40:49;9.77;;;5.10;;
56752;SDS011;42627;42.646;23.642;2023-05-07T06:42:50;8.82;;;4.70;;
56752;SDS011;42627;42.646;23.642;2023-05-07T06:44:56;9.60;;;4.97;;
56752;SDS011;42627;42.646;23.642;2023-05-07T06:49:32;13.02;;;5.15;;
56752;SDS011;42627;42.646;23.642;2023-05-07T06:51:33;7.70;;;4.70;;
56752;SDS011;42627;42.646;23.642;2023-05-07T06:53:35;8.27;;;4.80;;
56752;SDS011;42627;42.646;23.642;2023-05-07T06:55:36;11.73;;;5.07;;
56752;SDS011;42627;42.646;23.642;2023-05-07T06:57:38;9.38;;;5.03;;
56752;SDS011;42627;42.646;23.642;2023-05-07T06:59:39;9.02;;;5.20;;
56752;SDS011;42627;42.646;23.642;2023-05-07T07:01:40;9.27;;;5.40;;
56752;SDS011;42627;42.646;23.642;2023-05-07T07:05:53;10.65;;;5.32;;
56752;SDS011;42627;42.646;23.642;2023-05-07T07:07:54;10.68;;;5.25;;
56752;SDS011;42627;42.646;23.642;2023-05-07T07:09:55;9.77;;;5.43;;
56752;SDS011;42627;42.646;23.642;2023-05-07T07:11:56;11.38;;;5.55;;
56752;SDS011;42627;42.646;23.642;2023-05-07T07:14:02;10.02;;;5.65;;
56752;SDS011;42627;42.646;23.642;2023-05-07T07:18:45;8.68;;;5.13;;
56752;SDS011;42627;42.646;23.642;2023-05-07T07:20:46;9.65;;;5.22;;
56752;SDS011;42627;42.646;23.642;2023-05-07T07:22:47;12.48;;;6.00;;
56752;SDS011;42627;42.646;23.642;2023-05-07T07:24:48;11.00;;;5.53;;
56752;SDS011;42627;42.646;23.642;2023-05-07T07:26:51;8.95;;;5.43;;
56752;SDS011;42627;42.646;23.642;2023-05-07T07:28:52;9.68;;;5.57;;
56752;SDS011;42627;42.646;23.642;2023-05-07T07:30:53;9.18;;;5.78;;
56752;SDS011;42627;42.646;23.642;2023-05-07T07:35:11;10.07;;;4.85;;
56752;SDS011;42627;42.646;23.642;2023-05-07T07:37:12;10.50;;;5.85;;
56752;SDS011;42627;42.646;23.642;2023-05-07T07:39:13;9.93;;;5.72;;
56752;SDS011;42627;42.646;23.642;2023-05-07T07:41:14;10.00;;;5.70;;
56752;SDS011;42627;42.646;23.642;2023-05-07T07:43:21;12.15;;;6.05;;
56752;SDS011;42627;42.646;23.642;2023-05-07T07:48:06;9.65;;;5.43;;
56752;SDS011;42627;42.646;23.642;2023-05-07T07:50:07;9.57;;;5.05;;
56752;SDS011;42627;42.646;23.642;2023-05-07T07:52:09;8.15;;;4.72;;
56752;SDS011;42627;42.646;23.642;2023-05-07T07:54:10;8.63;;;5.40;;
56752;SDS011;42627;42.646;23.642;2023-05-07T07:56:11;7.85;;;4.72;;
56752;SDS011;42627;42.646;23.642;2023-05-07T07:58:12;10.07;;;4.95;;
56752;SDS011;42627;42.646;23.642;2023-05-07T08:00:13;8.45;;;4.72;;
56752;SDS011;42627;42.646;23.642;2023-05-07T08:02:14;9.55;;;5.28;;
56752;SDS011;42627;42.646;23.642;2023-05-07T08:04:15;18.20;;;5.00;;
56752;SDS011;42627;42.646;23.642;2023-05-07T08:06:16;10.32;;;5.00;;
56752;SDS011;42627;42.646;23.642;2023-05-07T08:08:17;7.95;;;4.82;;
56752;SDS011;42627;42.646;23.642;2023-05-07T08:10:19;10.77;;;4.45;;
56752;SDS011;42627;42.646;23.642;2023-05-07T08:12:23;7.70;;;3.95;;
56752;SDS011;42627;42.646;23.642;2023-05-07T08:14:24;8.85;;;5.00;;
56752;SDS011;42627;42.646;23.642;2023-05-07T08:16:25;9.10;;;4.22;;
56752;SDS011;42627;42.646;23.642;2023-05-07T08:18:39;7.82;;;4.00;;
56752;SDS011;42627;42.646;23.642;2023-05-07T08:23:34;8.30;;;4.68;;
56752;SDS011;42627;42.646;23.642;2023-05-07T08:25:35;7.95;;;4.25;;
56752;SDS011;42627;42.646;23.642;2023-05-07T08:27:36;7.00;;;3.80;;
56752;SDS011;42627;42.646;23.642;2023-05-07T08:29:37;6.10;;;3.45;;
56752;SDS011;42627;42.646;23.642;2023-05-07T08:31:38;6.10;;;3.53;;
56752;SDS011;42627;42.646;23.642;2023-05-07T08:33:39;8.90;;;3.70;;
56752;SDS011;42627;42.646;23.642;2023-05-07T08:35:40;5.40;;;3.15;;
56752;SDS011;42627;42.646;23.642;2023-05-07T08:37:56;5.85;;;3.35;;
56752;SDS011;42627;42.646;23.642;2023-05-07T08:39:57;5.88;;;3.58;;
56752;SDS011;42627;42.646;23.642;2023-05-07T08:42:00;6.53;;;3.28;;
56752;SDS011;42627;42.646;23.642;2023-05-07T08:44:04;9.13;;;3.15;;
56752;SDS011;42627;42.646;23.642;2023-05-07T08:46:08;7.60;;;3.15;;
56752;SDS011;42627;42.646;23.642;2023-05-07T08:53:20;4.88;;;2.63;;
56752;SDS011;42627;42.646;23.642;2023-05-07T08:55:25;7.70;;;2.90;;
56752;SDS011;42627;42.646;23.642;2023-05-07T08:59:37;4.43;;;2.42;;
56752;SDS011;42627;42.646;23.642;2023-05-07T09:06:00;5.47;;;2.53;;
56752;SDS011;42627;42.646;23.642;2023-05-07T09:10:20;4.65;;;2.33;;
56752;SDS011;42627;42.646;23.642;2023-05-07T09:12:21;4.40;;;2.10;;
56752;SDS011;42627;42.646;23.642;2023-05-07T09:14:22;4.72;;;2.33;;
56752;SDS011;42627;42.646;23.642;2023-05-07T09:16:24;3.58;;;2.05;;
56752;SDS011;42627;42.646;23.642;2023-05-07T09:23:35;4.55;;;2.00;;
56752;SDS011;42627;42.646;23.642;2023-05-07T09:25:36;3.83;;;2.33;;
56752;SDS011;42627;42.646;23.642;2023-05-07T09:27:37;4.47;;;2.15;;
56752;SDS011;42627;42.646;23.642;2023-05-07T09:29:38;3.45;;;1.75;;
56752;SDS011;42627;42.646;23.642;2023-05-07T09:31:39;6.97;;;3.20;;
56752;SDS011;42627;42.646;23.642;2023-05-07T09:33:40;4.63;;;2.65;;
56752;SDS011;42627;42.646;23.642;2023-05-07T09:35:41;4.28;;;2.85;;
56752;SDS011;42627;42.646;23.642;2023-05-07T09:37:48;3.45;;;2.05;;
56752;SDS011;42627;42.646;23.642;2023-05-07T09:39:49;3.90;;;2.35;;
56752;SDS011;42627;42.646;23.642;2023-05-07T09:41:51;2.80;;;1.58;;
56752;SDS011;42627;42.646;23.642;2023-05-07T09:43:54;6.78;;;2.15;;
56752;SDS011;42627;42.646;23.642;2023-05-07T09:45:55;3.38;;;2.03;;
56752;SDS011;42627;42.646;23.642;2023-05-07T09:53:03;4.60;;;1.90;;
56752;SDS011;42627;42.646;23.642;2023-05-07T09:55:04;4.10;;;2.10;;
56752;SDS011;42627;42.646;23.642;2023-05-07T09:57:06;4.85;;;2.17;;
56752;SDS011;42627;42.646;23.642;2023-05-07T09:59:08;3.50;;;1.90;;
56752;SDS011;42627;42.646;23.642;2023-05-07T10:01:10;3.08;;;1.88;;
56752;SDS011;42627;42.646;23.642;2023-05-07T10:03:12;5.40;;;2.67;;
56752;SDS011;42627;42.646;23.642;2023-05-07T10:05:14;2.47;;;1.60;;
56752;SDS011;42627;42.646;23.642;2023-05-07T10:07:16;4.75;;;1.67;;
56752;SDS011;42627;42.646;23.642;2023-05-07T10:09:17;3.35;;;1.80;;
56752;SDS011;42627;42.646;23.642;2023-05-07T10:11:18;3.85;;;2.13;;
56752;SDS011;42627;42.646;23.642;2023-05-07T10:13:20;3.83;;;2.10;;
56752;SDS011;42627;42.646;23.642;2023-05-07T10:15:21;2.83;;;1.60;;
56752;SDS011;42627;42.646;23.642;2023-05-07T10:22:44;3.33;;;1.80;;
56752;SDS011;42627;42.646;23.642;2023-05-07T10:24:46;3.60;;;1.58;;
56752;SDS011;42627;42.646;23.642;2023-05-07T10:26:50;3.28;;;1.77;;
56752;SDS011;42627;42.646;23.642;2023-05-07T10:28:53;5.00;;;1.83;;
56752;SDS011;42627;42.646;23.642;2023-05-07T10:31:04;3.78;;;1.60;;
56752;SDS011;42627;42.646;23.642;2023-05-07T10:33:22;2.95;;;1.40;;
56752;SDS011;42627;42.646;23.642;2023-05-07T10:37:52;3.97;;;1.80;;
56752;SDS011;42627;42.646;23.642;2023-05-07T10:39:53;4.00;;;1.52;;
56752;SDS011;42627;42.646;23.642;2023-05-07T10:41:54;2.58;;;1.45;;
56752;SDS011;42627;42.646;23.642;2023-05-07T10:43:55;4.40;;;1.80;;
56752;SDS011;42627;42.646;23.642;2023-05-07T10:53:40;4.45;;;1.70;;
56752;SDS011;42627;42.646;23.642;2023-05-07T10:55:41;4.25;;;2.13;;
56752;SDS011;42627;42.646;23.642;2023-05-07T10:57:42;4.10;;;2.08;;
56752;SDS011;42627;42.646;23.642;2023-05-07T10:59:43;4.38;;;2.45;;
56752;SDS011;42627;42.646;23.642;2023-05-07T11:04:12;4.25;;;1.70;;
56752;SDS011;42627;42.646;23.642;2023-05-07T11:06:28;2.92;;;1.55;;
56752;SDS011;42627;42.646;23.642;2023-05-07T11:10:51;3.38;;;1.67;;
56752;SDS011;42627;42.646;23.642;2023-05-07T11:12:53;4.00;;;1.60;;
56752;SDS011;42627;42.646;23.642;2023-05-07T11:14:54;3.13;;;1.65;;
56752;SDS011;42627;42.646;23.642;2023-05-07T11:22:05;3.45;;;1.67;;
56752;SDS011;42627;42.646;23.642;2023-05-07T11:24:26;3.60;;;1.88;;
56752;SDS011;42627;42.646;23.642;2023-05-07T11:26:28;3.50;;;1.90;;
56752;SDS011;42627;42.646;23.642;2023-05-07T11:28:30;4.43;;;1.77;;
56752;SDS011;42627;42.646;23.642;2023-05-07T11:30:32;4.10;;;2.00;;
56752;SDS011;42627;42.646;23.642;2023-05-07T11:32:33;4.10;;;2.15;;
56752;SDS011;42627;42.646;23.642;2023-05-07T11:36:52;4.88;;;2.10;;
56752;SDS011;42627;42.646;23.642;2023-05-07T11:40:59;2.70;;;1.73;;
56752;SDS011;42627;42.646;23.642;2023-05-07T11:43:09;3.70;;;2.00;;
56752;SDS011;42627;42.646;23.642;2023-05-07T11:52:10;3.88;;;2.08;;
56752;SDS011;42627;42.646;23.642;2023-05-07T11:54:15;4.30;;;1.85;;
56752;SDS011;42627;42.646;23.642;2023-05-07T11:56:16;3.60;;;1.83;;
56752;SDS011;42627;42.646;23.642;2023-05-07T11:58:20;3.83;;;1.80;;
56752;SDS011;42627;42.646;23.642;2023-05-07T12:00:21;3.10;;;2.30;;
56752;SDS011;42627;42.646;23.642;2023-05-07T12:02:23;3.00;;;1.80;;
56752;SDS011;42627;42.646;23.642;2023-05-07T12:04:33;3.47;;;1.98;;
56752;SDS011;42627;42.646;23.642;2023-05-07T12:06:35;4.30;;;1.88;;
56752;SDS011;42627;42.646;23.642;2023-05-07T12:08:38;7.57;;;1.90;;
56752;SDS011;42627;42.646;23.642;2023-05-07T12:10:41;3.25;;;1.85;;
56752;SDS011;42627;42.646;23.642;2023-05-07T12:12:42;5.32;;;1.95;;
56752;SDS011;42627;42.646;23.642;2023-05-07T12:15:04;2.58;;;1.40;;
56752;SDS011;42627;42.646;23.642;2023-05-07T12:21:51;2.35;;;1.58;;
56752;SDS011;42627;42.646;23.642;2023-05-07T12:23:52;3.30;;;1.75;;
56752;SDS011;42627;42.646;23.642;2023-05-07T12:25:53;3.38;;;1.70;;
56752;SDS011;42627;42.646;23.642;2023-05-07T12:27:54;3.17;;;1.80;;
56752;SDS011;42627;42.646;23.642;2023-05-07T12:29:57;4.28;;;2.03;;
56752;SDS011;42627;42.646;23.642;2023-05-07T12:31:59;3.88;;;2.10;;
56752;SDS011;42627;42.646;23.642;2023-05-07T12:36:12;3.92;;;2.08;;
56752;SDS011;42627;42.646;23.642;2023-05-07T12:38:14;3.50;;;1.77;;
56752;SDS011;42627;42.646;23.642;2023-05-07T12:40:17;3.47;;;2.15;;
56752;SDS011;42627;42.646;23.642;2023-05-07T12:42:36;4.07;;;1.83;;
56752;SDS011;42627;42.646;23.642;2023-05-07T12:47:21;4.07;;;2.50;;
56752;SDS011;42627;42.646;23.642;2023-05-07T12:49:34;4.57;;;2.55;;
56752;SDS011;42627;42.646;23.642;2023-05-07T12:51:38;8.18;;;2.65;;
56752;SDS011;42627;42.646;23.642;2023-05-07T12:53:40;4.18;;;2.85;;
56752;SDS011;42627;42.646;23.642;2023-05-07T12:55:46;5.28;;;3.00;;
56752;SDS011;42627;42.646;23.642;2023-05-07T12:57:48;5.00;;;2.95;;
56752;SDS011;42627;42.646;23.642;2023-05-07T12:59:50;3.95;;;2.60;;
56752;SDS011;42627;42.646;23.642;2023-05-07T13:01:52;5.05;;;2.97;;
56752;SDS011;42627;42.646;23.642;2023-05-07T13:04:02;3.80;;;2.17;;
56752;SDS011;42627;42.646;23.642;2023-05-07T13:06:08;4.60;;;2.60;;
56752;SDS011;42627;42.646;23.642;2023-05-07T13:08:24;5.05;;;2.25;;
56752;SDS011;42627;42.646;23.642;2023-05-07T13:10:26;4.90;;;2.42;;
56752;SDS011;42627;42.646;23.642;2023-05-07T13:12:28;4.10;;;2.60;;
56752;SDS011;42627;42.646;23.642;2023-05-07T13:17:01;4.10;;;2.45;;
56752;SDS011;42627;42.646;23.642;2023-05-07T13:19:08;5.82;;;2.78;;
56752;SDS011;42627;42.646;23.642;2023-05-07T13:21:09;3.60;;;2.50;;
56752;SDS011;42627;42.646;23.642;2023-05-07T13:23:10;4.13;;;2.20;;
56752;SDS011;42627;42.646;23.642;2023-05-07T13:25:11;4.20;;;2.47;;
56752;SDS011;42627;42.646;23.642;2023-05-07T13:27:12;5.88;;;2.72;;
56752;SDS011;42627;42.646;23.642;2023-05-07T13:29:13;6.65;;;2.80;;
56752;SDS011;42627;42.646;23.642;2023-05-07T13:31:14;6.13;;;3.13;;
56752;SDS011;42627;42.646;23.642;2023-05-07T13:33:20;6.20;;;2.58;;
56752;SDS011;42627;42.646;23.642;2023-05-07T13:35:21;4.55;;;2.60;;
56752;SDS011;42627;42.646;23.642;2023-05-07T13:37:22;4.40;;;2.83;;
56752;SDS011;42627;42.646;23.642;2023-05-07T13:39:23;4.18;;;2.55;;
56752;SDS011;42627;42.646;23.642;2023-05-07T13:41:24;5.25;;;3.20;;
56752;SDS011;42627;42.646;23.642;2023-05-07T13:48:27;4.13;;;2.80;;
56752;SDS011;42627;42.646;23.642;2023-05-07T13:50:28;3.88;;;2.42;;
56752;SDS011;42627;42.646;23.642;2023-05-07T13:52:29;4.32;;;2.50;;
56752;SDS011;42627;42.646;23.642;2023-05-07T13:54:30;4.90;;;2.20;;
56752;SDS011;42627;42.646;23.642;2023-05-07T13:56:31;4.68;;;2.47;;
56752;SDS011;42627;42.646;23.642;2023-05-07T13:58:32;3.72;;;2.25;;
56752;SDS011;42627;42.646;23.642;2023-05-07T14:00:33;4.50;;;2.25;;
56752;SDS011;42627;42.646;23.642;2023-05-07T14:04:48;3.35;;;2.33;;
56752;SDS011;42627;42.646;23.642;2023-05-07T14:06:49;5.10;;;2.53;;
56752;SDS011;42627;42.646;23.642;2023-05-07T14:08:50;4.85;;;2.20;;
56752;SDS011;42627;42.646;23.642;2023-05-07T14:10:51;4.63;;;2.40;;
56752;SDS011;42627;42.646;23.642;2023-05-07T14:17:59;4.00;;;2.13;;
56752;SDS011;42627;42.646;23.642;2023-05-07T14:20:00;3.60;;;2.60;;
56752;SDS011;42627;42.646;23.642;2023-05-07T14:22:01;3.95;;;2.33;;
56752;SDS011;42627;42.646;23.642;2023-05-07T14:24:02;5.10;;;2.72;;
56752;SDS011;42627;42.646;23.642;2023-05-07T14:26:03;4.80;;;2.70;;
56752;SDS011;42627;42.646;23.642;2023-05-07T14:28:04;3.88;;;2.38;;
56752;SDS011;42627;42.646;23.642;2023-05-07T14:30:06;3.65;;;2.28;;
56752;SDS011;42627;42.646;23.642;2023-05-07T14:32:25;4.72;;;2.10;;
56752;SDS011;42627;42.646;23.642;2023-05-07T14:34:26;3.90;;;2.25;;
56752;SDS011;42627;42.646;23.642;2023-05-07T14:36:27;3.08;;;1.95;;
56752;SDS011;42627;42.646;23.642;2023-05-07T14:38:30;3.25;;;2.05;;
56752;SDS011;42627;42.646;23.642;2023-05-07T14:40:32;5.78;;;2.22;;